LFST 200100Z AUTO VRB02KT CAVOK 20/14 Q1021 NOSIG LFST 200030Z AUTO VRB02KT CAVOK 21/15 Q1021 NOSIG LFST 200000Z AUTO 19003KT CAVOK 21/15 Q1021 NOSIG LFST 192330Z AUTO VRB02KT CAVOK 22/15 Q1021 NOSIG LFST 192300Z AUTO 06003KT 360V110 CAVOK 22/15 Q1021 TEMPO -TSRA SCT070CB LFST 192230Z AUTO 06005KT CAVOK 23/15 Q1021 TEMPO -TSRA SCT070CB LFST 192200Z AUTO VRB02KT CAVOK 23/14 Q1021 TEMPO -TSRA SCT070CB LFST 192130Z AUTO VRB02KT CAVOK 24/14 Q1021 TEMPO -TSRA SCT070CB LFST 192100Z AUTO 11004KT CAVOK 23/14 Q1021 TEMPO -TSRA SCT070CB LFST 192030Z AUTO 21004KT 190V250 CAVOK 24/12 Q1020 TEMPO -TSRA SCT070CB LFST 192000Z AUTO 21006KT CAVOK 24/11 Q1020 TEMPO -TSRA SCT070CB LFST 191930Z AUTO 21007KT CAVOK 26/11 Q1020 TEMPO -TSRA SCT070CB LFST 191900Z AUTO 21008KT CAVOK 26/12 Q1020 TEMPO -TSRA SCT070CB LFST 191830Z AUTO 21006KT CAVOK 28/13 Q1019 TEMPO -TSRA SCT070CB LFST 191800Z AUTO 20004KT 160V220 CAVOK 28/14 Q1019 NOSIG LFST 191730Z AUTO 19006KT 160V220 9999 FEW011 OVC120 29/14 Q1019 NOSIG LFST 191700Z AUTO 23007KT 190V260 CAVOK 29/13 Q1019 TEMPO VRB15G30KT 1200 TSRA SCT060CB LFST 191630Z AUTO 24009KT 200V270 CAVOK 30/13 Q1019 TEMPO VRB15G30KT 1200 TSRA SCT060CB LFST 191600Z AUTO 26013KT CAVOK 31/14 Q1019 TEMPO VRB15G30KT 1200 TSRA SCT060CB LFST 191530Z AUTO 24013KT CAVOK 30/14 Q1019 TEMPO VRB15G30KT 1200 TSRA SCT060CB LFST 191500Z AUTO 24011KT 210V290 CAVOK 31/14 Q1018 TEMPO VRB15G30KT 1200 TSRA SCT060CB LFST 191430Z AUTO 23011KT 190V280 CAVOK 32/14 Q1019 TEMPO VRB15G30KT 1200 TSRA SCT060CB LFST 191400Z AUTO 24012KT 220V280 CAVOK 32/14 Q1019 TEMPO VRB15G30KT 1200 TSRA SCT060CB LFST 191330Z AUTO 24008KT 180V280 CAVOK 33/13 Q1019 TEMPO VRB15G30KT 1200 TSRA SCT060CB LFST 191300Z AUTO 26008KT 220V320 CAVOK 32/12 Q1019 TEMPO VRB15G30KT 1200 TSRA SCT060CB LFST 191230Z AUTO 19008KT 130V240 CAVOK 32/13 Q1019 TEMPO VRB15G30KT 1200 TSRA SCT060CB LFST 191200Z AUTO 19010KT 160V220 CAVOK 32/13 Q1019 TEMPO VRB15G30KT 1200 TSRA SCT060CB LFST 191130Z AUTO 20009KT 160V230 CAVOK 32/12 Q1019 TEMPO VRB15G30KT 1200 TSRA SCT060CB LFST 191100Z AUTO 18010KT 120V210 CAVOK 31/14 Q1019 TEMPO VRB15G30KT 1200 TSRA SCT060CB LFST 191030Z AUTO 16006KT 090V190 CAVOK 29/14 Q1020 TEMPO VRB15G30KT 1200 TSRA SCT060CB LFST 191000Z AUTO 17010KT 120V210 CAVOK 29/15 Q1020 NOSIG LFST 190930Z AUTO 17009KT 130V200 CAVOK 28/14 Q1020 NOSIG LFST 190900Z AUTO 18008KT 130V210 CAVOK 28/14 Q1020 NOSIG LFST 190830Z AUTO 18009KT 150V210 CAVOK 26/14 Q1020 NOSIG LFST 190800Z AUTO 20007KT 150V230 CAVOK 25/14 Q1021 NOSIG LFST 190730Z AUTO 20008KT CAVOK 24/14 Q1021 NOSIG LFST 190700Z AUTO 19005KT 150V220 CAVOK 23/14 Q1020 NOSIG LFST 190630Z AUTO 20004KT 110V230 CAVOK 21/14 Q1020 NOSIG LFST 190600Z AUTO 19005KT CAVOK 19/13 Q1020 NOSIG LFST 190530Z AUTO VRB02KT CAVOK 19/13 Q1020 NOSIG LFST 190500Z AUTO 00000KT CAVOK 17/13 Q1020 NOSIG LFST 190430Z AUTO VRB02KT CAVOK 15/12 Q1020 NOSIG LFST 190400Z AUTO VRB01KT CAVOK 15/12 Q1019 NOSIG LFST 190330Z AUTO 24003KT CAVOK 15/12 Q1019 NOSIG LFST 190300Z AUTO 00000KT CAVOK 15/12 Q1019 NOSIG LFST 190230Z AUTO 00000KT CAVOK 15/12 Q1019 NOSIG LFST 190200Z AUTO 25002KT CAVOK 16/12 Q1019 NOSIG LFST 190130Z AUTO 03002KT CAVOK 16/12 Q1019 NOSIG LFST 190100Z AUTO 04002KT CAVOK 17/11 Q1019 NOSIG LFST 190030Z AUTO VRB01KT CAVOK 17/12 Q1019 NOSIG LFST 190000Z AUTO 24003KT CAVOK 18/12 Q1019 NOSIG LFST 182330Z AUTO 00000KT CAVOK 18/12 Q1019 NOSIG LFST 182300Z AUTO 00000KT CAVOK 19/12 Q1020 NOSIG LFST 182230Z AUTO 25003KT CAVOK 20/12 Q1020 NOSIG LFST 182200Z AUTO 21003KT 090V240 CAVOK 22/10 Q1020 NOSIG LFST 182130Z AUTO 08004KT 050V120 CAVOK 23/11 Q1019 NOSIG LFST 182100Z AUTO VRB02KT CAVOK 24/11 Q1019 NOSIG LFST 182030Z AUTO VRB02KT CAVOK 24/11 Q1019 NOSIG LFST 182000Z AUTO 07004KT CAVOK 24/11 Q1019 NOSIG LFST 181930Z AUTO 02004KT CAVOK 25/11 Q1019 NOSIG LFST 181900Z AUTO 01005KT CAVOK 26/11 Q1018 NOSIG LFST 181830Z AUTO 02007KT CAVOK 27/11 Q1018 NOSIG LFST 181800Z AUTO 02007KT CAVOK 28/11 Q1018 NOSIG LFST 181730Z AUTO 03010KT CAVOK 30/11 Q1018 NOSIG LFST 181700Z AUTO 01008KT CAVOK 30/11 Q1019 NOSIG LFST 181630Z AUTO 01007KT CAVOK 31/12 Q1019 NOSIG LFST 181600Z AUTO 05006KT 350V110 CAVOK 30/11 Q1019 NOSIG LFST 181530Z AUTO 06005KT 350V140 CAVOK 31/12 Q1019 NOSIG LFST 181500Z AUTO VRB04KT CAVOK 31/12 Q1019 NOSIG LFST 181430Z AUTO 08004KT 010V130 CAVOK 31/11 Q1020 NOSIG LFST 181400Z AUTO 07007KT 040V120 CAVOK 30/11 Q1020 NOSIG LFST 181330Z AUTO VRB05KT CAVOK 31/11 Q1020 NOSIG

METAR Messwerte "STRASBOURG/ENTZH" LFST

Zurück zur Übersicht

Ortsname
Ländercode / m ü. NN
Zeit Temperatur Taupunkt Rel.
Luftfeuchte
Luftdruck:
Altimeter
NN
Station
Wind in Beaufort
(Knoten)
Sichtweite
(Meter)
Wolken
(Meter über Grund)
Wettererscheinung
STRASBOURG/ENTZH
FR 149
Fr 20.05. 03:00201468 %1021
1021
1003
Uml 1 (2)>= 10000Nicht signifikant 
STRASBOURG/ENTZH
FR 149
Fr 20.05. 02:30211569 %1021
1021
1003
Uml 1 (2)>= 10000Nicht signifikant 
STRASBOURG/ENTZH
FR 149
Fr 20.05. 02:00211569 %1021
1021
1003
S 2 (3)>= 10000Nicht signifikant 
STRASBOURG/ENTZH
FR 149
Fr 20.05. 01:30221565 %1021
1021
1003
Uml 1 (2)>= 10000Nicht signifikant 
STRASBOURG/ENTZH
FR 149
Fr 20.05. 01:00221565 %1021
1021
1003
ONO 2 (3)
N - OSO
>= 10000Nicht signifikant Bald zeitweise: Gewitter mit Regen (schwach)
STRASBOURG/ENTZH
FR 149
Fr 20.05. 00:30231561 %1021
1021
1003
ONO 2 (5)>= 10000Nicht signifikant Bald zeitweise: Gewitter mit Regen (schwach)
STRASBOURG/ENTZH
FR 149
Fr 20.05. 00:00231457 %1021
1021
1003
Uml 1 (2)>= 10000Nicht signifikant Bald zeitweise: Gewitter mit Regen (schwach)
STRASBOURG/ENTZH
FR 149
Do 19.05. 23:30241454 %1021
1020
1003
Uml 1 (2)>= 10000Nicht signifikant Bald zeitweise: Gewitter mit Regen (schwach)
STRASBOURG/ENTZH
FR 149
Do 19.05. 23:00231457 %1021
1021
1003
OSO 2 (4)>= 10000Nicht signifikant Bald zeitweise: Gewitter mit Regen (schwach)
STRASBOURG/ENTZH
FR 149
Do 19.05. 22:30241247 %1020
1019
1002
SSW 2 (4)
S - WSW
>= 10000Nicht signifikant Bald zeitweise: Gewitter mit Regen (schwach)
STRASBOURG/ENTZH
FR 149
Do 19.05. 22:00241144 %1020
1019
1002
SSW 2 (6)>= 10000Nicht signifikant Bald zeitweise: Gewitter mit Regen (schwach)
STRASBOURG/ENTZH
FR 149
Do 19.05. 21:30261139 %1020
1019
1002
SSW 3 (7)>= 10000Nicht signifikant Bald zeitweise: Gewitter mit Regen (schwach)
STRASBOURG/ENTZH
FR 149
Do 19.05. 21:00261242 %1020
1019
1002
SSW 3 (8)>= 10000Nicht signifikant Bald zeitweise: Gewitter mit Regen (schwach)
STRASBOURG/ENTZH
FR 149
Do 19.05. 20:30281340 %1019
1018
1001
SSW 2 (6)>= 10000Nicht signifikant Bald zeitweise: Gewitter mit Regen (schwach)
STRASBOURG/ENTZH
FR 149
Do 19.05. 20:00281442 %1019
1018
1001
SSW 2 (4)
SSO - SW
>= 10000Nicht signifikant 
STRASBOURG/ENTZH
FR 149
Do 19.05. 19:30291440 %1019
1018
1001
S 2 (6)
SSO - SW
>= 10000Bedeckt (3700)
Leicht bewölkt (340)
 
STRASBOURG/ENTZH
FR 149
Do 19.05. 19:00291337 %1019
1018
1001
SW 3 (7)
S - W
Bald zeitweise:
Uml 4 (15) - 7 (30)
>= 10000
Bald zeitweise: 1200
Nicht signifikant Bald zeitweise: Gewitter mit Regen
STRASBOURG/ENTZH
FR 149
Do 19.05. 18:30301335 %1019
1018
1001
WSW 3 (9)
SSW - W
Bald zeitweise:
Uml 4 (15) - 7 (30)
>= 10000
Bald zeitweise: 1200
Nicht signifikant Bald zeitweise: Gewitter mit Regen
STRASBOURG/ENTZH
FR 149
Do 19.05. 18:00311436 %1019
1018
1001
W 4 (13)
Bald zeitweise:
Uml 4 (15) - 7 (30)
>= 10000
Bald zeitweise: 1200
Nicht signifikant Bald zeitweise: Gewitter mit Regen
STRASBOURG/ENTZH
FR 149
Do 19.05. 17:30301438 %1019
1018
1001
WSW 4 (13)
Bald zeitweise:
Uml 4 (15) - 7 (30)
>= 10000
Bald zeitweise: 1200
Nicht signifikant Bald zeitweise: Gewitter mit Regen
STRASBOURG/ENTZH
FR 149
Do 19.05. 17:00311436 %1018
1017
1000
WSW 4 (11)
SSW - WNW
Bald zeitweise:
Uml 4 (15) - 7 (30)
>= 10000
Bald zeitweise: 1200
Nicht signifikant Bald zeitweise: Gewitter mit Regen
STRASBOURG/ENTZH
FR 149
Do 19.05. 16:30321434 %1019
1018
1001
SW 4 (11)
S - W
Bald zeitweise:
Uml 4 (15) - 7 (30)
>= 10000
Bald zeitweise: 1200
Nicht signifikant Bald zeitweise: Gewitter mit Regen
STRASBOURG/ENTZH
FR 149
Do 19.05. 16:00321434 %1019
1018
1001
WSW 4 (12)
SW - W
Bald zeitweise:
Uml 4 (15) - 7 (30)
>= 10000
Bald zeitweise: 1200
Nicht signifikant Bald zeitweise: Gewitter mit Regen
STRASBOURG/ENTZH
FR 149
Do 19.05. 15:30331330 %1019
1018
1001
WSW 3 (8)
S - W
Bald zeitweise:
Uml 4 (15) - 7 (30)
>= 10000
Bald zeitweise: 1200
Nicht signifikant Bald zeitweise: Gewitter mit Regen
STRASBOURG/ENTZH
FR 149
Do 19.05. 15:00321229 %1019
1018
1001
W 3 (8)
SW - NW
Bald zeitweise:
Uml 4 (15) - 7 (30)
>= 10000
Bald zeitweise: 1200
Nicht signifikant Bald zeitweise: Gewitter mit Regen
STRASBOURG/ENTZH
FR 149
Do 19.05. 14:30321332 %1019
1018
1001
S 3 (8)
SO - WSW
Bald zeitweise:
Uml 4 (15) - 7 (30)
>= 10000
Bald zeitweise: 1200
Nicht signifikant Bald zeitweise: Gewitter mit Regen
STRASBOURG/ENTZH
FR 149
Do 19.05. 14:00321332 %1019
1018
1001
S 3 (10)
SSO - SW
Bald zeitweise:
Uml 4 (15) - 7 (30)
>= 10000
Bald zeitweise: 1200
Nicht signifikant Bald zeitweise: Gewitter mit Regen
STRASBOURG/ENTZH
FR 149
Do 19.05. 13:30321229 %1019
1018
1001
SSW 3 (9)
SSO - SW
Bald zeitweise:
Uml 4 (15) - 7 (30)
>= 10000
Bald zeitweise: 1200
Nicht signifikant Bald zeitweise: Gewitter mit Regen
STRASBOURG/ENTZH
FR 149
Do 19.05. 13:00311436 %1019
1018
1001
S 3 (10)
OSO - SSW
Bald zeitweise:
Uml 4 (15) - 7 (30)
>= 10000
Bald zeitweise: 1200
Nicht signifikant Bald zeitweise: Gewitter mit Regen
STRASBOURG/ENTZH
FR 149
Do 19.05. 12:30291440 %1020
1019
1002
SSO 2 (6)
O - S
Bald zeitweise:
Uml 4 (15) - 7 (30)
>= 10000
Bald zeitweise: 1200
Nicht signifikant Bald zeitweise: Gewitter mit Regen
STRASBOURG/ENTZH
FR 149
Do 19.05. 12:00291543 %1020
1019
1002
S 3 (10)
OSO - SSW
>= 10000Nicht signifikant 
STRASBOURG/ENTZH
FR 149
Do 19.05. 11:30281442 %1020
1019
1002
S 3 (9)
SO - SSW
>= 10000Nicht signifikant 
STRASBOURG/ENTZH
FR 149
Do 19.05. 11:00281442 %1020
1019
1002
S 3 (8)
SO - SSW
>= 10000Nicht signifikant 
STRASBOURG/ENTZH
FR 149
Do 19.05. 10:30261448 %1020
1019
1002
S 3 (9)
SSO - SSW
>= 10000Nicht signifikant 
STRASBOURG/ENTZH
FR 149
Do 19.05. 10:00251450 %1021
1020
1003
SSW 3 (7)
SSO - SW
>= 10000Nicht signifikant 
STRASBOURG/ENTZH
FR 149
Do 19.05. 09:30241454 %1021
1020
1003
SSW 3 (8)>= 10000Nicht signifikant 
STRASBOURG/ENTZH
FR 149
Do 19.05. 09:00231457 %1020
1020
1002
S 2 (5)
SSO - SW
>= 10000Nicht signifikant 
STRASBOURG/ENTZH
FR 149
Do 19.05. 08:30211464 %1020
1020
1002
SSW 2 (4)
OSO - SW
>= 10000Nicht signifikant 
STRASBOURG/ENTZH
FR 149
Do 19.05. 08:00191368 %1020
1020
1002
S 2 (5)>= 10000Nicht signifikant 
STRASBOURG/ENTZH
FR 149
Do 19.05. 07:30191368 %1020
1020
1002
Uml 1 (2)>= 10000Nicht signifikant 
STRASBOURG/ENTZH
FR 149
Do 19.05. 07:00171377 %1020
1020
1002
Windstill>= 10000Nicht signifikant 
STRASBOURG/ENTZH
FR 149
Do 19.05. 06:30151282 %1020
1020
1002
Uml 1 (2)>= 10000Nicht signifikant 
STRASBOURG/ENTZH
FR 149
Do 19.05. 06:00151282 %1019
1019
1001
Uml 1 (1)>= 10000Nicht signifikant 
STRASBOURG/ENTZH
FR 149
Do 19.05. 05:30151282 %1019
1019
1001
WSW 2 (3)>= 10000Nicht signifikant 
STRASBOURG/ENTZH
FR 149
Do 19.05. 05:00151282 %1019
1019
1001
Windstill>= 10000Nicht signifikant 
STRASBOURG/ENTZH
FR 149
Do 19.05. 04:30151282 %1019
1019
1001
Windstill>= 10000Nicht signifikant 
STRASBOURG/ENTZH
FR 149
Do 19.05. 04:00161277 %1019
1019
1001
WSW 1 (2)>= 10000Nicht signifikant 
STRASBOURG/ENTZH
FR 149
Do 19.05. 03:30161277 %1019
1019
1001
NNO 1 (2)>= 10000Nicht signifikant 
STRASBOURG/ENTZH
FR 149
Do 19.05. 03:00171168 %1019
1019
1001
NO 1 (2)>= 10000Nicht signifikant 
STRASBOURG/ENTZH
FR 149
Do 19.05. 02:30171272 %1019
1019
1001
Uml 1 (1)>= 10000Nicht signifikant 
STRASBOURG/ENTZH
FR 149
Do 19.05. 02:00181268 %1019
1019
1001
WSW 2 (3)>= 10000Nicht signifikant 
STRASBOURG/ENTZH
FR 149
Do 19.05. 01:30181268 %1019
1019
1001
Windstill>= 10000Nicht signifikant 
STRASBOURG/ENTZH
FR 149
Do 19.05. 01:00191264 %1020
1020
1002
Windstill>= 10000Nicht signifikant 
STRASBOURG/ENTZH
FR 149
Do 19.05. 00:30201260 %1020
1020
1002
WSW 2 (3)>= 10000Nicht signifikant 
STRASBOURG/ENTZH
FR 149
Do 19.05. 00:00221046 %1020
1020
1002
SSW 2 (3)
O - WSW
>= 10000Nicht signifikant 
STRASBOURG/ENTZH
FR 149
Mi 18.05. 23:30231147 %1019
1019
1001
O 2 (4)
NO - OSO
>= 10000Nicht signifikant 
STRASBOURG/ENTZH
FR 149
Mi 18.05. 23:00241144 %1019
1018
1001
Uml 1 (2)>= 10000Nicht signifikant 
STRASBOURG/ENTZH
FR 149
Mi 18.05. 22:30241144 %1019
1018
1001
Uml 1 (2)>= 10000Nicht signifikant 
STRASBOURG/ENTZH
FR 149
Mi 18.05. 22:00241144 %1019
1018
1001
ONO 2 (4)>= 10000Nicht signifikant 
STRASBOURG/ENTZH
FR 149
Mi 18.05. 21:30251141 %1019
1018
1001
NNO 2 (4)>= 10000Nicht signifikant 
STRASBOURG/ENTZH
FR 149
Mi 18.05. 21:00261139 %1018
1017
1000
N 2 (5)>= 10000Nicht signifikant 
STRASBOURG/ENTZH
FR 149
Mi 18.05. 20:30271137 %1018
1017
1000
NNO 3 (7)>= 10000Nicht signifikant 
STRASBOURG/ENTZH
FR 149
Mi 18.05. 20:00281135 %1018
1017
1000
NNO 3 (7)>= 10000Nicht signifikant 
STRASBOURG/ENTZH
FR 149
Mi 18.05. 19:30301131 %1018
1017
1000
NNO 3 (10)>= 10000Nicht signifikant 
STRASBOURG/ENTZH
FR 149
Mi 18.05. 19:00301131 %1019
1018
1001
N 3 (8)>= 10000Nicht signifikant 
STRASBOURG/ENTZH
FR 149
Mi 18.05. 18:30311231 %1019
1018
1001
N 3 (7)>= 10000Nicht signifikant 
STRASBOURG/ENTZH
FR 149
Mi 18.05. 18:00301131 %1019
1018
1001
NO 2 (6)
N - OSO
>= 10000Nicht signifikant 
STRASBOURG/ENTZH
FR 149
Mi 18.05. 17:30311231 %1019
1018
1001
ONO 2 (5)
N - SO
>= 10000Nicht signifikant 
STRASBOURG/ENTZH
FR 149
Mi 18.05. 17:00311231 %1019
1018
1001
Uml 2 (4)>= 10000Nicht signifikant 
STRASBOURG/ENTZH
FR 149
Mi 18.05. 16:30311129 %1020
1019
1002
O 2 (4)
N - SO
>= 10000Nicht signifikant 
STRASBOURG/ENTZH
FR 149
Mi 18.05. 16:00301131 %1020
1019
1002
ONO 3 (7)
NO - OSO
>= 10000Nicht signifikant 
STRASBOURG/ENTZH
FR 149
Mi 18.05. 15:30311129 %1020
1019
1002
Uml 2 (5)>= 10000Nicht signifikant 

Altimeter: Einstellung am Altimeter (Höhenmesser), die Höhe 0 muss auf diesen Luftdruckwert zeigen, damit das Gerät die Stationshöhe richtig anzeigt.

NN: Luftdruck reduziert auf "Normal Null", auf Meereshöhe, dieser von der Temperatur abhängige Wert wird bisweilen unkorrekt einfach als "Luftdruck" bezeichnet. Eigentlich nur eine fiktive Größe, die es erlaubt, Stationen auf unterschiedlichen Höhen miteinander zu vergleichen.

Station: Realer Luftdruck an der Station.